createdAt,value
2023-03-31T00:01:48.196Z,1.27
2023-03-31T00:04:53.355Z,1.00
2023-03-31T00:08:01.344Z,0.98
2023-03-31T00:11:07.355Z,0.73
2023-03-31T00:14:10.981Z,0.80
2023-03-31T00:17:15.819Z,0.80
2023-03-31T00:20:18.943Z,0.80
2023-03-31T00:23:28.011Z,0.75
2023-03-31T00:26:31.596Z,0.90
2023-03-31T00:29:35.941Z,0.80
2023-03-31T00:32:40.439Z,0.90
2023-03-31T00:35:43.717Z,0.90
2023-03-31T00:38:46.861Z,1.08
2023-03-31T00:41:50.276Z,0.98
2023-03-31T00:45:24.958Z,0.90
2023-03-31T00:48:29.625Z,0.65
2023-03-31T00:51:35.658Z,1.08
2023-03-31T00:54:40.761Z,1.13
2023-03-31T00:57:46.801Z,1.20
2023-03-31T01:00:53.083Z,1.58
2023-03-31T01:03:59.364Z,1.77
2023-03-31T01:07:09.311Z,0.93
2023-03-31T01:10:12.568Z,0.93
2023-03-31T01:13:17.531Z,1.00
2023-03-31T01:16:20.363Z,0.90
2023-03-31T01:19:37.075Z,1.15
2023-03-31T01:23:18.227Z,1.10
2023-03-31T01:26:52.552Z,1.05
2023-03-31T01:30:33.883Z,0.95
2023-03-31T01:34:09.109Z,1.48
2023-03-31T01:37:50.712Z,0.90
2023-03-31T01:41:07.732Z,0.70
2023-03-31T01:44:20.759Z,1.45
2023-03-31T01:47:32.917Z,1.20
2023-03-31T01:50:39.818Z,1.13
2023-03-31T01:53:51.708Z,1.10
2023-03-31T01:57:02.000Z,1.00
2023-03-31T02:00:11.463Z,0.90
2023-03-31T02:03:18.820Z,0.80
2023-03-31T02:06:26.450Z,0.70
2023-03-31T02:09:33.333Z,0.73
2023-03-31T02:12:41.628Z,0.73
2023-03-31T02:15:49.929Z,0.70
2023-03-31T02:19:02.727Z,0.55
2023-03-31T02:22:07.268Z,0.73
2023-03-31T02:25:13.705Z,0.82
2023-03-31T02:28:22.270Z,0.80
2023-03-31T02:31:30.483Z,1.23
2023-03-31T02:34:33.399Z,1.00
2023-03-31T02:37:36.671Z,0.70
2023-03-31T02:40:39.409Z,0.85
2023-03-31T02:43:43.906Z,1.00
2023-03-31T02:46:48.016Z,1.02
2023-03-31T02:49:53.662Z,0.90
2023-03-31T02:53:04.478Z,1.10
2023-03-31T02:56:23.278Z,1.00
2023-03-31T02:59:42.470Z,1.10
2023-03-31T03:03:03.233Z,1.30
2023-03-31T03:06:19.277Z,1.10
2023-03-31T03:09:37.500Z,1.30
2023-03-31T03:12:46.227Z,1.10
2023-03-31T03:15:57.018Z,1.20
2023-03-31T03:19:02.378Z,0.90
2023-03-31T03:22:06.448Z,1.42
2023-03-31T03:25:14.485Z,1.23
2023-03-31T03:28:17.467Z,0.98
2023-03-31T03:31:23.864Z,1.30
2023-03-31T03:34:27.107Z,1.20
2023-03-31T03:37:30.557Z,1.17
2023-03-31T03:40:33.287Z,1.25
2023-03-31T03:43:36.020Z,1.00
2023-03-31T03:46:40.201Z,1.20
2023-03-31T03:49:43.128Z,0.90
2023-03-31T03:52:46.098Z,1.10
2023-03-31T03:55:49.829Z,1.15
2023-03-31T03:58:52.757Z,0.98
2023-03-31T04:01:57.005Z,1.30
2023-03-31T04:04:59.814Z,1.42
2023-03-31T04:08:02.878Z,1.45
2023-03-31T04:11:16.642Z,1.10
2023-03-31T04:14:20.918Z,1.10
2023-03-31T04:17:32.797Z,1.10
2023-03-31T04:20:37.777Z,1.20
2023-03-31T04:23:42.830Z,1.20
2023-03-31T04:26:45.669Z,1.15
2023-03-31T04:29:54.735Z,1.73
2023-03-31T04:33:01.092Z,1.30
2023-03-31T04:36:07.214Z,2.08
2023-03-31T04:39:11.930Z,1.58
2023-03-31T04:42:15.108Z,1.50
2023-03-31T04:45:18.453Z,1.13
2023-03-31T04:48:22.617Z,1.42
2023-03-31T04:51:25.427Z,2.05
2023-03-31T04:54:28.165Z,1.60
2023-03-31T04:57:31.013Z,1.48
2023-03-31T05:00:33.841Z,1.30
2023-03-31T05:03:38.071Z,1.73
2023-03-31T05:06:41.126Z,1.50
2023-03-31T05:09:43.968Z,1.73
2023-03-31T05:12:46.808Z,1.73
2023-03-31T05:15:50.813Z,1.73
2023-03-31T05:18:55.344Z,1.70
2023-03-31T05:21:58.322Z,2.05
2023-03-31T05:25:01.153Z,2.08
2023-03-31T05:28:04.103Z,2.00
2023-03-31T05:31:08.107Z,2.40
2023-03-31T05:34:12.509Z,2.42
2023-03-31T05:37:15.446Z,2.08
2023-03-31T05:40:18.394Z,3.22
2023-03-31T05:43:21.360Z,2.80
2023-03-31T05:46:24.470Z,2.22
2023-03-31T05:49:28.701Z,2.35
2023-03-31T05:52:32.878Z,1.90
2023-03-31T05:55:37.432Z,2.10
2023-03-31T05:58:41.582Z,2.58
2023-03-31T06:01:44.709Z,2.50
2023-03-31T06:04:49.089Z,2.20
2023-03-31T06:07:52.057Z,1.90
2023-03-31T06:10:55.028Z,2.50
2023-03-31T06:13:57.957Z,2.15
2023-03-31T06:17:01.783Z,2.25
2023-03-31T06:20:19.741Z,2.77
2023-03-31T06:23:30.343Z,2.10
2023-03-31T06:26:33.240Z,3.20
2023-03-31T06:29:36.442Z,2.50
2023-03-31T06:32:39.504Z,2.60
2023-03-31T06:35:43.931Z,2.40
2023-03-31T06:38:47.184Z,2.13
2023-03-31T06:41:50.069Z,2.23
2023-03-31T06:44:53.207Z,2.73
2023-03-31T06:47:56.317Z,2.23
2023-03-31T06:51:02.856Z,2.40
2023-03-31T06:54:06.269Z,1.93
2023-03-31T06:57:09.845Z,3.20
2023-03-31T07:00:17.555Z,2.30
2023-03-31T07:03:22.557Z,3.00
2023-03-31T07:06:27.215Z,2.37
2023-03-31T07:09:29.955Z,2.63
2023-03-31T07:12:33.810Z,2.47
2023-03-31T07:15:36.778Z,2.40
2023-03-31T07:18:42.208Z,1.70
2023-03-31T07:21:46.523Z,1.50
2023-03-31T07:24:49.498Z,1.60
2023-03-31T07:27:52.747Z,1.50
2023-03-31T07:30:56.285Z,1.50
2023-03-31T07:33:59.270Z,1.33
2023-03-31T07:37:03.782Z,1.37
2023-03-31T07:40:08.450Z,1.27
2023-03-31T07:43:11.365Z,1.20
2023-03-31T07:46:19.815Z,1.10
2023-03-31T07:49:22.770Z,0.87
2023-03-31T07:52:27.029Z,0.97
2023-03-31T07:55:30.112Z,0.80
2023-03-31T07:58:32.805Z,0.80
2023-03-31T08:01:36.173Z,0.70
2023-03-31T08:04:39.225Z,0.60
2023-03-31T08:07:45.326Z,1.00
2023-03-31T08:10:48.398Z,0.50
2023-03-31T08:13:51.657Z,0.47
2023-03-31T08:16:55.405Z,0.40
2023-03-31T08:20:01.626Z,0.60
2023-03-31T08:23:11.424Z,0.70
2023-03-31T08:26:18.251Z,0.60
2023-03-31T08:29:21.181Z,0.60
2023-03-31T08:32:25.241Z,0.60
2023-03-31T08:35:28.038Z,0.80
2023-03-31T08:38:33.120Z,0.60
2023-03-31T08:41:48.311Z,0.50
2023-03-31T08:44:59.125Z,0.60
2023-03-31T08:48:07.590Z,0.65
2023-03-31T08:51:15.372Z,0.57
2023-03-31T08:54:26.939Z,0.75
2023-03-31T08:57:37.118Z,0.90
2023-03-31T09:00:47.896Z,0.85
2023-03-31T09:04:12.539Z,0.80
2023-03-31T09:07:21.446Z,0.88
2023-03-31T09:10:37.836Z,0.73
2023-03-31T09:14:10.415Z,0.98
2023-03-31T09:17:21.515Z,0.60
2023-03-31T09:20:29.471Z,0.70
2023-03-31T09:23:36.168Z,0.60
2023-03-31T09:26:42.586Z,0.75
2023-03-31T09:29:50.742Z,0.77
2023-03-31T09:32:59.653Z,0.50
2023-03-31T09:36:03.958Z,0.40
2023-03-31T09:39:08.115Z,0.90
2023-03-31T09:42:14.499Z,0.50
2023-03-31T09:45:21.520Z,0.80
2023-03-31T09:48:28.042Z,1.17
2023-03-31T09:51:37.283Z,0.80
2023-03-31T09:54:45.850Z,0.73
2023-03-31T09:57:50.256Z,0.70
2023-03-31T10:01:05.502Z,1.02
2023-03-31T10:04:09.979Z,0.90
2023-03-31T10:07:14.765Z,0.95
2023-03-31T10:10:28.193Z,0.50
2023-03-31T10:13:44.907Z,0.73
2023-03-31T10:16:51.432Z,0.93
2023-03-31T10:19:57.072Z,0.45
2023-03-31T10:23:05.693Z,0.75
2023-03-31T10:26:14.968Z,0.90
2023-03-31T10:29:25.908Z,0.80
2023-03-31T10:32:31.637Z,0.70
2023-03-31T10:35:36.470Z,0.80
2023-03-31T10:38:45.236Z,0.77
2023-03-31T10:41:52.654Z,0.75
2023-03-31T10:45:23.245Z,0.70
2023-03-31T10:48:34.740Z,0.65
2023-03-31T10:51:37.490Z,0.77
2023-03-31T10:54:47.902Z,0.63
2023-03-31T10:57:57.044Z,0.73
2023-03-31T11:01:12.597Z,1.05
2023-03-31T11:04:40.616Z,0.70
2023-03-31T11:07:55.492Z,0.85
2023-03-31T11:11:31.215Z,0.93
2023-03-31T11:14:46.590Z,1.15
2023-03-31T11:18:06.816Z,0.88
2023-03-31T11:21:20.311Z,0.95
2023-03-31T11:24:35.035Z,0.52
2023-03-31T11:27:53.696Z,0.40
2023-03-31T11:31:08.054Z,0.22
2023-03-31T11:34:27.485Z,0.30
2023-03-31T11:37:46.154Z,0.20
2023-03-31T11:41:01.371Z,0.10
2023-03-31T11:44:06.779Z,0.20
2023-03-31T11:47:14.335Z,0.30
2023-03-31T11:50:22.168Z,0.27
2023-03-31T11:53:28.428Z,0.17
2023-03-31T11:56:36.507Z,0.20
2023-03-31T11:59:41.735Z,0.10
2023-03-31T12:02:50.306Z,0.10
2023-03-31T12:05:59.913Z,0.30
2023-03-31T12:09:18.445Z,0.23
2023-03-31T12:12:25.640Z,0.30
2023-03-31T12:15:32.481Z,0.28
2023-03-31T12:18:39.783Z,0.30
2023-03-31T12:21:48.256Z,0.25
2023-03-31T12:24:52.887Z,0.20
2023-03-31T12:27:56.907Z,0.40
2023-03-31T12:31:04.371Z,0.32
2023-03-31T12:34:12.431Z,0.60
2023-03-31T12:37:35.896Z,0.50
2023-03-31T12:40:46.705Z,0.40
2023-03-31T12:44:01.601Z,0.20
2023-03-31T12:47:27.904Z,0.60
2023-03-31T12:50:48.607Z,0.28
2023-03-31T12:54:07.023Z,0.20
2023-03-31T12:57:21.877Z,0.40
2023-03-31T13:00:27.593Z,0.35
2023-03-31T13:03:45.164Z,0.40
2023-03-31T13:06:53.800Z,0.52
2023-03-31T13:10:25.827Z,0.82
2023-03-31T13:13:29.002Z,0.65
2023-03-31T13:16:32.869Z,0.90
2023-03-31T13:19:37.353Z,0.85
2023-03-31T13:22:44.067Z,0.43
2023-03-31T13:25:51.415Z,0.20
2023-03-31T13:29:19.906Z,0.50
2023-03-31T13:32:23.818Z,0.57
2023-03-31T13:35:34.043Z,0.50
2023-03-31T13:38:51.328Z,0.30
2023-03-31T13:42:05.573Z,0.30
2023-03-31T13:45:35.335Z,0.45
2023-03-31T13:48:48.878Z,0.15
2023-03-31T13:51:57.130Z,0.13
2023-03-31T13:55:37.354Z,0.13
2023-03-31T13:58:53.910Z,0.10
2023-03-31T14:02:28.244Z,0.30
2023-03-31T14:05:34.944Z,0.20
2023-03-31T14:08:51.503Z,0.10
2023-03-31T14:11:54.639Z,0.60
2023-03-31T14:14:58.814Z,0.27
2023-03-31T14:18:01.792Z,0.22
2023-03-31T14:21:13.703Z,0.10
2023-03-31T14:24:28.066Z,0.22
2023-03-31T14:27:51.737Z,0.38
2023-03-31T14:31:11.154Z,0.40
2023-03-31T14:34:29.518Z,0.20
2023-03-31T14:37:32.722Z,0.30
2023-03-31T14:40:47.898Z,0.30
2023-03-31T14:43:54.004Z,0.30
2023-03-31T14:46:59.562Z,0.35
2023-03-31T14:50:07.802Z,0.20
2023-03-31T14:53:16.270Z,0.20
2023-03-31T14:56:31.722Z,0.40
2023-03-31T14:59:37.451Z,0.35
2023-03-31T15:02:44.562Z,0.20
2023-03-31T15:05:50.204Z,0.30
2023-03-31T15:08:58.224Z,0.50
2023-03-31T15:12:03.977Z,0.10
2023-03-31T15:15:08.265Z,0.40
2023-03-31T15:18:14.842Z,0.20
2023-03-31T15:21:22.479Z,0.50
2023-03-31T15:24:25.628Z,0.30
2023-03-31T15:27:37.444Z,0.30
2023-03-31T15:30:41.257Z,0.45
2023-03-31T15:33:45.953Z,0.30
2023-03-31T15:36:50.839Z,0.50
2023-03-31T15:39:56.361Z,0.45
2023-03-31T15:43:13.960Z,0.30
2023-03-31T15:46:56.909Z,0.43
2023-03-31T15:50:13.150Z,0.22
2023-03-31T15:53:27.442Z,0.38
2023-03-31T15:56:34.862Z,0.90
2023-03-31T15:59:55.286Z,0.75
2023-03-31T16:03:01.850Z,0.40
2023-03-31T16:06:10.749Z,0.50
2023-03-31T16:09:17.713Z,0.47
2023-03-31T16:12:24.957Z,0.40
2023-03-31T16:15:35.272Z,0.60
2023-03-31T16:18:43.068Z,0.20
2023-03-31T16:21:52.769Z,0.40
2023-03-31T16:24:55.799Z,0.35
2023-03-31T16:28:01.113Z,0.38
2023-03-31T16:31:06.017Z,0.30
2023-03-31T16:34:11.135Z,0.38
2023-03-31T16:37:15.472Z,0.50
2023-03-31T16:40:18.221Z,0.28
2023-03-31T16:43:22.985Z,0.40
2023-03-31T16:46:26.356Z,0.35
2023-03-31T16:49:29.490Z,0.28
2023-03-31T16:52:34.025Z,0.30
2023-03-31T16:55:36.743Z,0.30
2023-03-31T16:58:40.324Z,0.60
2023-03-31T17:01:43.219Z,0.40
2023-03-31T17:04:46.117Z,0.28
2023-03-31T17:07:50.364Z,0.45
2023-03-31T17:10:55.510Z,0.30
2023-03-31T17:14:00.232Z,0.63
2023-03-31T17:17:03.276Z,0.20
2023-03-31T17:20:08.098Z,0.55
2023-03-31T17:23:12.566Z,0.17
2023-03-31T17:26:15.675Z,0.40
2023-03-31T17:29:18.464Z,0.30
2023-03-31T17:32:21.899Z,0.80
2023-03-31T17:35:25.043Z,0.80
2023-03-31T17:38:29.981Z,0.73
2023-03-31T17:41:33.172Z,0.90
2023-03-31T17:44:36.414Z,0.37
2023-03-31T17:47:39.174Z,0.50
2023-03-31T17:50:41.880Z,1.10
2023-03-31T17:53:47.759Z,0.60
2023-03-31T17:56:50.862Z,0.28
2023-03-31T17:59:53.824Z,0.93
2023-03-31T18:02:56.620Z,0.40
2023-03-31T18:06:04.838Z,0.40
2023-03-31T18:09:09.470Z,0.60
2023-03-31T18:12:12.407Z,0.37
2023-03-31T18:15:15.809Z,0.40
2023-03-31T18:18:18.702Z,0.50
2023-03-31T18:21:21.655Z,0.37
2023-03-31T18:24:26.077Z,0.63
2023-03-31T18:27:28.820Z,0.60
2023-03-31T18:30:32.245Z,0.50
2023-03-31T18:33:35.652Z,0.50
2023-03-31T18:36:39.113Z,1.00
2023-03-31T18:39:43.424Z,0.80
2023-03-31T18:42:47.643Z,0.60
2023-03-31T18:45:51.257Z,0.60
2023-03-31T18:48:54.516Z,0.80
2023-03-31T18:51:58.744Z,0.60
2023-03-31T18:55:03.102Z,0.70
2023-03-31T18:58:05.843Z,0.83
2023-03-31T19:01:08.686Z,0.70
2023-03-31T19:04:11.905Z,0.60
2023-03-31T19:07:15.671Z,0.70
2023-03-31T19:10:19.934Z,0.60
2023-03-31T19:13:22.659Z,0.60
2023-03-31T19:16:26.920Z,1.03
2023-03-31T19:19:30.238Z,0.43
2023-03-31T19:22:33.151Z,0.67
2023-03-31T19:25:37.446Z,0.50
2023-03-31T19:28:40.570Z,0.70
2023-03-31T19:31:45.200Z,0.70
2023-03-31T19:34:47.994Z,0.70
2023-03-31T19:37:52.449Z,0.80
2023-03-31T19:40:56.635Z,0.83
2023-03-31T19:43:59.588Z,0.70
2023-03-31T19:47:02.251Z,0.80
2023-03-31T19:50:05.638Z,0.43
2023-03-31T19:53:08.330Z,0.63
2023-03-31T19:56:14.417Z,0.43
2023-03-31T19:59:17.601Z,1.07
2023-03-31T20:02:20.853Z,0.60
2023-03-31T20:05:23.780Z,0.63
2023-03-31T20:08:26.672Z,0.50
2023-03-31T20:11:32.157Z,1.00
2023-03-31T20:14:35.391Z,0.90
2023-03-31T20:17:38.643Z,0.70
2023-03-31T20:20:41.851Z,0.60
2023-03-31T20:23:46.575Z,0.97
2023-03-31T20:26:50.957Z,1.00
2023-03-31T20:29:53.929Z,0.80
2023-03-31T20:32:56.641Z,0.60
2023-03-31T20:36:02.846Z,0.70
2023-03-31T20:39:06.527Z,0.50
2023-03-31T20:42:11.031Z,0.60
2023-03-31T20:45:14.005Z,1.20
2023-03-31T20:48:17.828Z,0.50
2023-03-31T20:51:23.158Z,0.90
2023-03-31T20:54:26.129Z,0.90
2023-03-31T20:57:31.170Z,0.60
2023-03-31T21:00:34.135Z,0.40
2023-03-31T21:03:37.773Z,0.50
2023-03-31T21:06:42.726Z,0.50
2023-03-31T21:09:45.583Z,0.50
2023-03-31T21:12:49.806Z,0.40
2023-03-31T21:15:54.588Z,0.50
2023-03-31T21:18:59.248Z,0.30
2023-03-31T21:22:02.147Z,0.70
2023-03-31T21:25:05.892Z,0.90
2023-03-31T21:28:10.510Z,0.60
2023-03-31T21:31:15.169Z,0.50
2023-03-31T21:34:17.939Z,0.57
2023-03-31T21:37:20.846Z,0.70
2023-03-31T21:40:23.835Z,0.30
2023-03-31T21:43:28.571Z,0.60
2023-03-31T21:46:33.882Z,0.80
2023-03-31T21:49:37.055Z,0.70
2023-03-31T21:52:39.795Z,0.50
2023-03-31T21:55:44.663Z,0.93
2023-03-31T21:58:48.814Z,0.73
2023-03-31T22:01:52.265Z,0.33
2023-03-31T22:04:55.202Z,0.53
2023-03-31T22:07:57.895Z,0.60
2023-03-31T22:11:01.666Z,0.50
2023-03-31T22:14:06.410Z,0.50
2023-03-31T22:17:09.153Z,0.30
2023-03-31T22:20:13.564Z,0.33
2023-03-31T22:23:17.143Z,0.30
2023-03-31T22:26:20.151Z,0.30
2023-03-31T22:29:24.428Z,0.30
2023-03-31T22:32:27.631Z,0.40
2023-03-31T22:35:30.789Z,0.43
2023-03-31T22:38:34.216Z,0.20
2023-03-31T22:41:37.087Z,0.50
2023-03-31T22:44:41.417Z,0.37
2023-03-31T22:47:44.375Z,0.20
2023-03-31T22:50:47.469Z,0.50
2023-03-31T22:53:52.095Z,0.20
2023-03-31T22:56:55.460Z,0.30
2023-03-31T22:59:59.746Z,0.13
2023-03-31T23:03:02.622Z,0.27
2023-03-31T23:06:06.586Z,0.30
2023-03-31T23:09:09.391Z,0.23
2023-03-31T23:12:12.117Z,0.10
2023-03-31T23:15:16.427Z,0.27
2023-03-31T23:18:19.353Z,0.40
2023-03-31T23:21:24.236Z,0.37
2023-03-31T23:24:29.262Z,0.30
2023-03-31T23:27:32.118Z,0.33
2023-03-31T23:30:36.534Z,0.23
2023-03-31T23:33:39.400Z,0.50
2023-03-31T23:36:42.373Z,0.57
2023-03-31T23:39:45.607Z,0.40
2023-03-31T23:42:48.636Z,0.20
2023-03-31T23:45:53.085Z,0.30
2023-03-31T23:48:56.407Z,0.30
2023-03-31T23:51:59.127Z,0.30
2023-03-31T23:55:02.003Z,0.20
2023-03-31T23:58:05.517Z,0.40
